sensor_id;sensor_type;location;lat;lon;timestamp;temperature;humidity
6954;DHT22;3516;47.980;8.808;2022-11-15T05:02:49;20.50;99.90
6954;DHT22;3516;47.980;8.808;2022-11-15T05:05:34;20.50;99.90
6954;DHT22;3516;47.980;8.808;2022-11-15T05:08:01;20.50;99.90
6954;DHT22;3516;47.980;8.808;2022-11-15T05:10:27;20.50;99.90
6954;DHT22;3516;47.980;8.808;2022-11-15T05:12:54;20.50;99.90
6954;DHT22;3516;47.980;8.808;2022-11-15T05:15:20;20.50;99.90
6954;DHT22;3516;47.980;8.808;2022-11-15T05:17:47;20.50;99.90
6954;DHT22;3516;47.980;8.808;2022-11-15T05:20:15;20.50;99.90
6954;DHT22;3516;47.980;8.808;2022-11-15T05:22:42;20.50;99.90
6954;DHT22;3516;47.980;8.808;2022-11-15T05:25:08;20.50;99.90
6954;DHT22;3516;47.980;8.808;2022-11-15T05:27:35;20.50;99.90
6954;DHT22;3516;47.980;8.808;2022-11-15T05:30:01;20.50;99.90
6954;DHT22;3516;47.980;8.808;2022-11-15T05:32:28;20.50;99.90
6954;DHT22;3516;47.980;8.808;2022-11-15T05:34:55;20.40;99.90
6954;DHT22;3516;47.980;8.808;2022-11-15T05:37:23;20.50;99.90
6954;DHT22;3516;47.980;8.808;2022-11-15T05:39:49;20.40;99.90
6954;DHT22;3516;47.980;8.808;2022-11-15T05:42:16;20.60;99.90
6954;DHT22;3516;47.980;8.808;2022-11-15T05:44:44;20.40;99.90
6954;DHT22;3516;47.980;8.808;2022-11-15T05:47:13;20.50;99.90
6954;DHT22;3516;47.980;8.808;2022-11-15T05:49:41;20.50;99.90
6954;DHT22;3516;47.980;8.808;2022-11-15T05:52:10;20.50;99.90
6954;DHT22;3516;47.980;8.808;2022-11-15T05:54:39;20.50;99.90
6954;DHT22;3516;47.980;8.808;2022-11-15T05:57:06;20.50;99.90
6954;DHT22;3516;47.980;8.808;2022-11-15T05:59:32;20.50;99.90
6954;DHT22;3516;47.980;8.808;2022-11-15T06:01:59;20.50;99.90
6954;DHT22;3516;47.980;8.808;2022-11-15T06:04:26;20.50;99.90
6954;DHT22;3516;47.980;8.808;2022-11-15T06:06:53;20.50;99.90
6954;DHT22;3516;47.980;8.808;2022-11-15T06:09:19;20.50;99.90
6954;DHT22;3516;47.980;8.808;2022-11-15T06:11:47;20.50;99.90
6954;DHT22;3516;47.980;8.808;2022-11-15T15:53:30;20.80;83.40
6954;DHT22;3516;47.980;8.808;2022-11-15T15:56:00;20.80;83.30
6954;DHT22;3516;47.980;8.808;2022-11-15T15:58:27;20.80;83.30
6954;DHT22;3516;47.980;8.808;2022-11-15T16:00:55;20.80;83.30
6954;DHT22;3516;47.980;8.808;2022-11-15T16:03:22;20.80;83.30
6954;DHT22;3516;47.980;8.808;2022-11-15T16:05:49;20.80;83.30
6954;DHT22;3516;47.980;8.808;2022-11-15T16:08:17;20.80;83.30
6954;DHT22;3516;47.980;8.808;2022-11-15T16:10:46;20.80;83.30
6954;DHT22;3516;47.980;8.808;2022-11-15T16:13:13;20.80;83.20
6954;DHT22;3516;47.980;8.808;2022-11-15T16:15:40;20.80;83.20
6954;DHT22;3516;47.980;8.808;2022-11-15T16:18:10;20.80;83.20
6954;DHT22;3516;47.980;8.808;2022-11-15T16:20:41;20.80;83.20
6954;DHT22;3516;47.980;8.808;2022-11-15T16:23:10;20.80;83.20
6954;DHT22;3516;47.980;8.808;2022-11-15T16:25:38;20.80;83.20
6954;DHT22;3516;47.980;8.808;2022-11-15T16:28:11;20.80;83.20
6954;DHT22;3516;47.980;8.808;2022-11-15T16:30:41;20.80;83.20
6954;DHT22;3516;47.980;8.808;2022-11-15T16:33:08;20.80;83.30
6954;DHT22;3516;47.980;8.808;2022-11-15T16:35:35;20.80;83.30
6954;DHT22;3516;47.980;8.808;2022-11-15T16:38:02;20.80;83.30
6954;DHT22;3516;47.980;8.808;2022-11-15T16:40:30;20.80;83.30
6954;DHT22;3516;47.980;8.808;2022-11-15T16:42:57;20.80;83.40
6954;DHT22;3516;47.980;8.808;2022-11-15T16:45:25;20.80;83.40
6954;DHT22;3516;47.980;8.808;2022-11-15T16:47:55;20.80;83.30
6954;DHT22;3516;47.980;8.808;2022-11-15T16:50:22;20.80;83.30
6954;DHT22;3516;47.980;8.808;2022-11-15T16:52:51;20.80;83.40
6954;DHT22;3516;47.980;8.808;2022-11-15T16:55:18;20.80;83.40
6954;DHT22;3516;47.980;8.808;2022-11-15T16:57:44;20.80;83.50
6954;DHT22;3516;47.980;8.808;2022-11-15T17:00:11;20.80;83.60
6954;DHT22;3516;47.980;8.808;2022-11-15T17:02:42;20.80;83.60
6954;DHT22;3516;47.980;8.808;2022-11-15T17:05:09;20.80;83.70
6954;DHT22;3516;47.980;8.808;2022-11-15T17:07:36;20.80;83.80
6954;DHT22;3516;47.980;8.808;2022-11-15T17:10:03;20.80;83.80
6954;DHT22;3516;47.980;8.808;2022-11-15T17:12:29;20.80;83.90
6954;DHT22;3516;47.980;8.808;2022-11-15T17:14:56;20.80;84.00
6954;DHT22;3516;47.980;8.808;2022-11-15T17:17:22;20.80;84.20
6954;DHT22;3516;47.980;8.808;2022-11-15T17:19:52;20.80;85.00
6954;DHT22;3516;47.980;8.808;2022-11-15T17:22:18;20.80;84.30
6954;DHT22;3516;47.980;8.808;2022-11-15T17:24:45;20.80;84.40
6954;DHT22;3516;47.980;8.808;2022-11-15T17:27:12;20.80;84.50
6954;DHT22;3516;47.980;8.808;2022-11-15T17:29:39;20.90;84.60
6954;DHT22;3516;47.980;8.808;2022-11-15T17:32:06;20.90;84.70
6954;DHT22;3516;47.980;8.808;2022-11-15T17:34:33;20.90;84.70
6954;DHT22;3516;47.980;8.808;2022-11-15T17:37:01;20.90;85.50
6954;DHT22;3516;47.980;8.808;2022-11-15T17:39:27;20.80;84.70
6954;DHT22;3516;47.980;8.808;2022-11-15T17:41:54;20.80;84.70
6954;DHT22;3516;47.980;8.808;2022-11-15T17:44:20;20.80;84.80
6954;DHT22;3516;47.980;8.808;2022-11-15T17:46:47;20.80;84.90
6954;DHT22;3516;47.980;8.808;2022-11-15T17:49:13;20.80;84.90
6954;DHT22;3516;47.980;8.808;2022-11-15T17:51:40;20.80;85.00
6954;DHT22;3516;47.980;8.808;2022-11-15T17:54:09;20.90;85.20
6954;DHT22;3516;47.980;8.808;2022-11-15T17:56:37;20.80;85.20
6954;DHT22;3516;47.980;8.808;2022-11-15T17:59:04;20.80;85.30
6954;DHT22;3516;47.980;8.808;2022-11-15T18:01:31;20.90;85.50
6954;DHT22;3516;47.980;8.808;2022-11-15T18:03:58;20.80;85.50
6954;DHT22;3516;47.980;8.808;2022-11-15T18:06:27;20.80;85.60
6954;DHT22;3516;47.980;8.808;2022-11-15T18:08:54;20.80;85.80
6954;DHT22;3516;47.980;8.808;2022-11-15T18:11:23;20.80;86.00
6954;DHT22;3516;47.980;8.808;2022-11-15T18:13:51;20.80;86.10
6954;DHT22;3516;47.980;8.808;2022-11-15T18:16:19;20.80;86.00
6954;DHT22;3516;47.980;8.808;2022-11-15T18:18:45;20.80;86.00
6954;DHT22;3516;47.980;8.808;2022-11-15T18:21:13;20.80;86.10
6954;DHT22;3516;47.980;8.808;2022-11-15T18:23:40;20.80;86.10
6954;DHT22;3516;47.980;8.808;2022-11-15T18:26:07;20.80;86.00
6954;DHT22;3516;47.980;8.808;2022-11-15T18:28:36;20.80;86.00
6954;DHT22;3516;47.980;8.808;2022-11-15T18:31:05;20.80;86.00
6954;DHT22;3516;47.980;8.808;2022-11-15T18:33:37;20.80;86.10
6954;DHT22;3516;47.980;8.808;2022-11-15T18:36:04;20.80;86.10
6954;DHT22;3516;47.980;8.808;2022-11-15T18:38:31;20.80;86.00
6954;DHT22;3516;47.980;8.808;2022-11-15T18:41:03;20.90;86.20
6954;DHT22;3516;47.980;8.808;2022-11-15T18:43:30;20.80;86.10
6954;DHT22;3516;47.980;8.808;2022-11-15T18:46:01;20.90;86.40
6954;DHT22;3516;47.980;8.808;2022-11-15T18:48:29;20.90;86.60
6954;DHT22;3516;47.980;8.808;2022-11-15T18:50:58;20.90;86.70
6954;DHT22;3516;47.980;8.808;2022-11-15T18:53:25;20.90;86.70
6954;DHT22;3516;47.980;8.808;2022-11-15T18:55:52;20.90;86.90
6954;DHT22;3516;47.980;8.808;2022-11-15T18:58:18;20.90;87.00
6954;DHT22;3516;47.980;8.808;2022-11-15T19:00:45;20.90;87.10
6954;DHT22;3516;47.980;8.808;2022-11-15T19:03:13;20.90;87.10
6954;DHT22;3516;47.980;8.808;2022-11-15T19:05:39;20.90;87.10
6954;DHT22;3516;47.980;8.808;2022-11-15T19:08:06;20.90;87.20
6954;DHT22;3516;47.980;8.808;2022-11-15T19:10:33;20.90;87.20
6954;DHT22;3516;47.980;8.808;2022-11-15T19:12:59;20.90;87.30
6954;DHT22;3516;47.980;8.808;2022-11-15T19:15:26;20.90;87.40
6954;DHT22;3516;47.980;8.808;2022-11-15T19:17:53;20.80;87.50
6954;DHT22;3516;47.980;8.808;2022-11-15T19:20:21;20.90;87.80
6954;DHT22;3516;47.980;8.808;2022-11-15T19:22:47;20.90;88.00
6954;DHT22;3516;47.980;8.808;2022-11-15T19:25:14;20.90;88.20
6954;DHT22;3516;47.980;8.808;2022-11-15T19:27:43;20.90;88.40
6954;DHT22;3516;47.980;8.808;2022-11-15T19:30:10;20.90;88.70
6954;DHT22;3516;47.980;8.808;2022-11-15T19:32:36;20.90;88.90
6954;DHT22;3516;47.980;8.808;2022-11-15T19:35:03;21.00;89.50
6954;DHT22;3516;47.980;8.808;2022-11-15T19:37:31;21.00;90.00
6954;DHT22;3516;47.980;8.808;2022-11-15T19:39:59;21.00;90.20
6954;DHT22;3516;47.980;8.808;2022-11-15T19:42:26;21.00;90.40
6954;DHT22;3516;47.980;8.808;2022-11-15T19:44:52;21.10;90.70
6954;DHT22;3516;47.980;8.808;2022-11-15T19:47:19;21.10;90.90
6954;DHT22;3516;47.980;8.808;2022-11-15T19:49:46;21.10;90.90
6954;DHT22;3516;47.980;8.808;2022-11-15T19:52:12;21.10;91.10
6954;DHT22;3516;47.980;8.808;2022-11-15T19:54:40;21.10;91.40
6954;DHT22;3516;47.980;8.808;2022-11-15T19:57:07;21.10;91.50
6954;DHT22;3516;47.980;8.808;2022-11-15T19:59:33;21.10;91.70
6954;DHT22;3516;47.980;8.808;2022-11-15T20:02:00;21.10;91.90
6954;DHT22;3516;47.980;8.808;2022-11-15T20:04:26;21.10;92.10
6954;DHT22;3516;47.980;8.808;2022-11-15T20:06:53;21.10;92.30
6954;DHT22;3516;47.980;8.808;2022-11-15T20:09:19;21.10;92.40
6954;DHT22;3516;47.980;8.808;2022-11-15T20:11:47;21.10;92.60
6954;DHT22;3516;47.980;8.808;2022-11-15T20:14:14;21.10;92.80
6954;DHT22;3516;47.980;8.808;2022-11-15T20:16:40;21.10;92.90
6954;DHT22;3516;47.980;8.808;2022-11-15T20:19:07;21.10;93.10
6954;DHT22;3516;47.980;8.808;2022-11-15T20:21:34;21.10;93.20
6954;DHT22;3516;47.980;8.808;2022-11-15T20:24:01;21.10;93.40
6954;DHT22;3516;47.980;8.808;2022-11-15T20:26:27;21.10;93.40
6954;DHT22;3516;47.980;8.808;2022-11-15T20:28:57;21.10;93.40
6954;DHT22;3516;47.980;8.808;2022-11-15T20:31:26;21.10;93.40
6954;DHT22;3516;47.980;8.808;2022-11-15T20:33:53;21.10;93.40
6954;DHT22;3516;47.980;8.808;2022-11-15T20:36:19;21.10;93.40
6954;DHT22;3516;47.980;8.808;2022-11-15T20:38:46;21.00;93.50
6954;DHT22;3516;47.980;8.808;2022-11-15T20:41:12;21.10;93.60
6954;DHT22;3516;47.980;8.808;2022-11-15T20:43:39;21.10;93.60
6954;DHT22;3516;47.980;8.808;2022-11-15T20:46:09;21.00;93.70
6954;DHT22;3516;47.980;8.808;2022-11-15T20:48:35;21.00;93.70
6954;DHT22;3516;47.980;8.808;2022-11-15T20:51:03;21.00;93.80
6954;DHT22;3516;47.980;8.808;2022-11-15T20:53:30;21.00;93.90
6954;DHT22;3516;47.980;8.808;2022-11-15T20:56:00;21.00;93.90
6954;DHT22;3516;47.980;8.808;2022-11-15T20:58:27;20.90;94.00
6954;DHT22;3516;47.980;8.808;2022-11-15T21:00:54;21.00;94.10
6954;DHT22;3516;47.980;8.808;2022-11-15T21:03:22;21.00;94.20
6954;DHT22;3516;47.980;8.808;2022-11-15T21:05:51;20.90;94.20
6954;DHT22;3516;47.980;8.808;2022-11-15T21:08:18;20.90;94.30
6954;DHT22;3516;47.980;8.808;2022-11-15T21:10:47;21.00;94.40
6954;DHT22;3516;47.980;8.808;2022-11-15T21:13:32;20.90;94.40
6954;DHT22;3516;47.980;8.808;2022-11-15T21:15:58;20.90;94.60
6954;DHT22;3516;47.980;8.808;2022-11-15T21:18:28;20.90;94.70
6954;DHT22;3516;47.980;8.808;2022-11-15T21:20:55;20.90;94.80
6954;DHT22;3516;47.980;8.808;2022-11-15T21:23:26;20.90;94.90
6954;DHT22;3516;47.980;8.808;2022-11-15T21:25:53;20.90;95.00
6954;DHT22;3516;47.980;8.808;2022-11-15T21:28:20;20.90;95.10
6954;DHT22;3516;47.980;8.808;2022-11-15T21:30:56;20.90;95.20
6954;DHT22;3516;47.980;8.808;2022-11-15T21:33:22;20.90;95.30
6954;DHT22;3516;47.980;8.808;2022-11-15T21:35:53;20.90;95.40
6954;DHT22;3516;47.980;8.808;2022-11-15T21:38:19;20.90;95.60
6954;DHT22;3516;47.980;8.808;2022-11-15T21:40:47;20.90;95.70
6954;DHT22;3516;47.980;8.808;2022-11-15T21:43:14;20.90;95.70
6954;DHT22;3516;47.980;8.808;2022-11-15T21:45:41;20.90;95.70
6954;DHT22;3516;47.980;8.808;2022-11-15T21:48:07;20.90;95.80
6954;DHT22;3516;47.980;8.808;2022-11-15T21:50:34;20.90;96.00
6954;DHT22;3516;47.980;8.808;2022-11-15T21:53:02;20.90;96.10
6954;DHT22;3516;47.980;8.808;2022-11-15T21:55:28;20.90;96.20
6954;DHT22;3516;47.980;8.808;2022-11-15T21:57:55;20.90;96.30
6954;DHT22;3516;47.980;8.808;2022-11-15T22:00:21;20.90;96.70
6954;DHT22;3516;47.980;8.808;2022-11-15T22:03:06;20.90;96.50
6954;DHT22;3516;47.980;8.808;2022-11-15T22:05:32;20.90;96.60
6954;DHT22;3516;47.980;8.808;2022-11-15T22:07:59;20.80;96.70
6954;DHT22;3516;47.980;8.808;2022-11-15T22:10:27;20.90;96.80
6954;DHT22;3516;47.980;8.808;2022-11-15T22:12:53;20.90;96.90
6954;DHT22;3516;47.980;8.808;2022-11-15T22:15:20;20.90;97.00
6954;DHT22;3516;47.980;8.808;2022-11-15T22:17:46;20.90;97.10
6954;DHT22;3516;47.980;8.808;2022-11-15T22:20:25;20.90;97.30
6954;DHT22;3516;47.980;8.808;2022-11-15T22:22:54;20.90;97.40
6954;DHT22;3516;47.980;8.808;2022-11-15T22:25:21;20.90;97.50
6954;DHT22;3516;47.980;8.808;2022-11-15T22:27:49;20.90;97.60
6954;DHT22;3516;47.980;8.808;2022-11-15T22:30:16;20.90;97.60
6954;DHT22;3516;47.980;8.808;2022-11-15T22:32:43;20.90;97.70
6954;DHT22;3516;47.980;8.808;2022-11-15T22:35:09;20.90;97.80
6954;DHT22;3516;47.980;8.808;2022-11-15T22:37:36;20.90;98.00
6954;DHT22;3516;47.980;8.808;2022-11-15T22:40:03;20.90;98.20
6954;DHT22;3516;47.980;8.808;2022-11-15T22:42:30;20.90;98.20
6954;DHT22;3516;47.980;8.808;2022-11-15T22:44:58;20.90;98.20
6954;DHT22;3516;47.980;8.808;2022-11-15T22:47:25;20.90;98.20
6954;DHT22;3516;47.980;8.808;2022-11-15T22:49:52;20.90;98.30
6954;DHT22;3516;47.980;8.808;2022-11-15T22:52:18;20.90;98.40
6954;DHT22;3516;47.980;8.808;2022-11-15T22:54:45;20.90;98.50
6954;DHT22;3516;47.980;8.808;2022-11-15T22:57:12;20.90;98.60
6954;DHT22;3516;47.980;8.808;2022-11-15T22:59:38;20.90;98.70
6954;DHT22;3516;47.980;8.808;2022-11-15T23:02:07;20.90;98.80
6954;DHT22;3516;47.980;8.808;2022-11-15T23:04:34;20.90;98.90
6954;DHT22;3516;47.980;8.808;2022-11-15T23:07:00;20.80;98.90
6954;DHT22;3516;47.980;8.808;2022-11-15T23:09:27;20.80;99.00
6954;DHT22;3516;47.980;8.808;2022-11-15T23:11:54;20.90;99.20
6954;DHT22;3516;47.980;8.808;2022-11-15T23:14:38;20.90;99.20
6954;DHT22;3516;47.980;8.808;2022-11-15T23:17:04;20.90;99.40
6954;DHT22;3516;47.980;8.808;2022-11-15T23:19:32;20.80;99.40
6954;DHT22;3516;47.980;8.808;2022-11-15T23:21:59;20.80;99.50
